Metar
Geneve

LSGG 291920Z AUTO 01006KT CAVOK 17/04 Q1018

Payerne

LSMP 291920Z AUTO 04009KT 350V070 9999NDV NCD 17/04 Q1019 RMK

Eplatures

LSGC 051550Z 13006KT 080V170 CAVOK 15/M05 Q1019

Berne

LSZB 291920Z AUTO VRB02KT 9999 FEW065 16/04 Q1019

Granges

LSZG 291920Z AUTO 04007KT 9999 NSC 15/04 Q1020

Sion

LSGS 291920Z AUTO 26005KT 210V300 CAVOK 19/06 Q1015

Annecy

LFLP 291900Z AUTO 32003KT 280V350 CAVOK 18/06 Q1017

Taf
Geneve

TAF TAF LSGG 291725Z 2918/3024 04010G24KT CAVOK TX21/3015Z TN09/3005Z BECMG 2921/2923 VRB03KT BECMG 3006/3008 05010KT BECMG 3009/3012 9999 FEW035

Eplatures

TAF AMD TAF AMD LSGC 270646Z 2706/2718 VRB03KT 9000 OVC015 BECMG 2712/2715 9999 SCT020

Berne

TAF AMD TAF AMD LSZB 222054Z 2220/2224 CNL

Granges

TAF AMD LSZG 222054Z 2220/2224 CNL

Sion

TAF AMD LSGS 242023Z 2415/2424 CNL

Annecy

TAF AMD LFLP 241400Z 2420/2515 CNL